Time;durP1;ratioP1;P1;durP2;ratioP2;P2;SDS_P1;SDS_P2;PMS_P1;PMS_P2;Temp;Humidity;BMP_temperature;BMP_pressure;BME280_temperature;BME280_humidity;BME280_pressure;Samples;Min_cycle;Max_cycle;Signal;HPM_P1;HPM_P2
2022/02/21 00:00:55;;;;;;;3.70;3.02;;;;;;;4.13;76.89;98195.39;1744165;81;20999;-66
2022/02/21 00:03:21;;;;;;;4.97;2.92;;;;;;;4.16;76.72;98192.45;1730927;81;21191;-65
2022/02/21 00:05:49;;;;;;;5.00;3.17;;;;;;;4.19;76.48;98193.44;1729055;82;21108;-65
2022/02/21 00:08:15;;;;;;;3.20;2.72;;;;;;;4.21;76.25;98188.00;1732857;81;21509;-64
2022/02/21 00:10:43;;;;;;;2.90;2.60;;;;;;;4.23;76.05;98180.28;1734832;81;21613;-65
2022/02/21 00:13:12;;;;;;;3.45;2.90;;;;;;;4.26;75.74;98183.08;1745086;81;20963;-65
2022/02/21 00:15:38;;;;;;;3.75;2.80;;;;;;;4.28;75.41;98167.94;1759916;81;21148;-65
2022/02/21 00:18:05;;;;;;;4.05;2.70;;;;;;;4.30;75.09;98168.62;1748539;81;20964;-66
2022/02/21 00:20:32;;;;;;;2.98;2.62;;;;;;;4.32;74.82;98166.64;1732499;81;21013;-64
2022/02/21 00:23:01;;;;;;;3.70;2.52;;;;;;;4.33;74.43;98161.20;1731730;81;20980;-64
2022/02/21 00:25:29;;;;;;;3.75;2.72;;;;;;;4.34;74.19;98160.23;1731126;81;20949;-65
2022/02/21 00:27:55;;;;;;;3.30;2.40;;;;;;;4.36;73.88;98156.93;1731132;81;21201;-64
2022/02/21 00:30:23;;;;;;;2.90;2.42;;;;;;;4.40;73.48;98153.48;1724760;81;21545;-64
2022/02/21 00:32:50;;;;;;;3.45;2.70;;;;;;;4.41;73.25;98159.06;1760904;81;20924;-64
2022/02/21 00:35:17;;;;;;;4.33;2.87;;;;;;;4.43;73.00;98151.02;1758771;81;21046;-64
2022/02/21 00:37:44;;;;;;;4.08;2.92;;;;;;;4.46;72.80;98150.70;1738840;81;21572;-64
2022/02/21 00:40:11;;;;;;;3.70;3.30;;;;;;;4.48;72.62;98151.35;1732139;81;20875;-64
2022/02/21 00:42:39;;;;;;;3.65;2.70;;;;;;;4.51;72.45;98137.34;1758664;81;20904;-64
2022/02/21 00:45:09;;;;;;;4.28;2.58;;;;;;;4.54;72.27;98137.50;1760933;81;21058;-65
2022/02/21 00:47:35;;;;;;;4.15;2.58;;;;;;;4.58;72.00;98133.57;1732323;81;21039;-65
2022/02/21 00:50:04;;;;;;;3.22;2.52;;;;;;;4.61;71.75;98122.22;1717229;81;20957;-64
2022/02/21 00:52:31;;;;;;;3.40;2.35;;;;;;;4.66;71.46;98119.09;1733415;81;21160;-64
2022/02/21 00:54:57;;;;;;;2.90;2.20;;;;;;;4.70;71.17;98121.70;1708200;83;20975;-64
2022/02/21 00:57:23;;;;;;;3.98;2.52;;;;;;;4.74;70.89;98115.95;1765410;81;21190;-64
2022/02/21 00:59:50;;;;;;;3.90;2.87;;;;;;;4.78;70.65;98104.57;1756645;80;20944;-65
2022/02/21 01:02:16;;;;;;;5.08;2.52;;;;;;;4.83;70.42;98099.62;1743938;82;20897;-65
2022/02/21 01:04:42;;;;;;;3.30;2.27;;;;;;;4.87;70.15;98100.95;1744262;82;21164;-63
2022/02/21 01:07:09;;;;;;;3.67;2.47;;;;;;;4.89;69.96;98089.73;1745112;80;20923;-65
2022/02/21 01:09:37;;;;;;;3.52;2.33;;;;;;;4.91;69.80;98081.98;1751713;80;21485;-64
2022/02/21 01:12:05;;;;;;;2.77;2.47;;;;;;;4.94;69.58;98080.34;1773585;80;20935;-64
2022/02/21 01:14:31;;;;;;;2.47;2.27;;;;;;;4.95;69.43;98084.60;1761222;80;21002;-66
2022/02/21 01:16:58;;;;;;;3.05;2.22;;;;;;;4.97;69.37;98079.18;1751516;80;23318;-65
2022/02/21 01:19:24;;;;;;;2.77;1.95;;;;;;;5.00;69.28;98075.69;1746856;80;21129;-64
2022/02/21 01:21:51;;;;;;;3.02;2.27;;;;;;;5.02;69.16;98078.17;1743672;82;20941;-65
2022/02/21 01:24:17;;;;;;;3.83;2.17;;;;;;;5.03;69.02;98077.20;1758578;80;21058;-65
2022/02/21 01:26:44;;;;;;;3.12;2.10;;;;;;;5.05;68.93;98065.98;1773793;80;20974;-64
2022/02/21 01:29:11;;;;;;;2.65;2.00;;;;;;;5.07;68.79;98063.99;1755776;80;21891;-64
2022/02/21 01:31:37;;;;;;;2.10;1.90;;;;;;;5.07;68.72;98057.41;1743766;82;21466;-64
2022/02/21 01:34:03;;;;;;;3.98;2.25;;;;;;;5.09;68.61;98056.73;1768299;80;21038;-64
2022/02/21 01:36:30;;;;;;;3.70;2.17;;;;;;;5.10;68.49;98050.48;1773147;80;20931;-64
2022/02/21 01:38:56;;;;;;;3.87;2.30;;;;;;;5.12;68.41;98050.30;1752781;80;21059;-64
2022/02/21 01:41:22;;;;;;;2.62;2.22;;;;;;;5.13;68.31;98040.91;1760176;80;21201;-64
2022/02/21 01:43:49;;;;;;;3.12;2.37;;;;;;;5.15;68.13;98031.02;1773788;80;20935;-64
2022/02/21 01:46:15;;;;;;;3.87;2.12;;;;;;;5.17;67.96;98028.19;1751634;80;21474;-63
2022/02/21 01:48:42;;;;;;;3.05;2.15;;;;;;;5.18;67.84;98025.41;1749590;80;20872;-65
2022/02/21 01:51:08;;;;;;;3.30;2.37;;;;;;;5.19;67.68;98025.70;1768274;80;20987;-64
2022/02/21 01:53:34;;;;;;;2.85;2.00;;;;;;;5.20;67.61;98016.81;1761444;80;21820;-65
2022/02/21 01:56:03;;;;;;;1.82;1.57;;;;;;;5.21;67.49;98014.52;1773349;80;20944;-64
2022/02/21 01:58:30;;;;;;;2.40;1.80;;;;;;;5.22;67.37;98008.73;1760602;80;20989;-64
2022/02/21 02:00:57;;;;;;;2.12;1.77;;;;;;;5.23;67.34;98002.47;1746595;80;20937;-65
2022/02/21 02:03:25;;;;;;;2.08;1.75;;;;;;;5.26;67.27;98003.45;1743957;82;21042;-64
2022/02/21 02:05:51;;;;;;;3.30;1.77;;;;;;;5.25;67.14;97993.39;1744255;82;21138;-64
2022/02/21 02:08:18;;;;;;;2.12;1.60;;;;;;;5.27;67.05;97995.84;1758820;80;20974;-64
2022/02/21 02:10:44;;;;;;;1.82;1.57;;;;;;;5.29;66.93;97990.72;1765753;80;20941;-64
2022/02/21 02:13:11;;;;;;;2.27;1.85;;;;;;;5.31;66.89;97991.89;1757366;80;20939;-64
2022/02/21 02:15:38;;;;;;;2.45;1.40;;;;;;;5.32;66.81;97987.75;1762007;80;20959;-65
2022/02/21 02:18:05;;;;;;;3.83;1.72;;;;;;;5.33;66.81;97985.45;1761441;80;22017;-65
2022/02/21 02:20:32;;;;;;;4.22;1.70;;;;;;;5.36;66.79;97980.32;1760120;80;20931;-65
2022/02/21 02:22:58;;;;;;;2.30;1.80;;;;;;;5.37;66.71;97967.47;1761215;80;20939;-65
2022/02/21 02:25:25;;;;;;;2.17;1.40;;;;;;;5.41;66.69;97977.98;1766684;80;21506;-64
2022/02/21 02:27:51;;;;;;;2.40;2.20;;;;;;;5.43;66.57;97972.86;1773698;80;20931;-65
2022/02/21 02:30:17;;;;;;;1.98;1.80;;;;;;;5.47;66.42;97966.25;1770815;80;21814;-64
2022/02/21 02:32:48;;;;;;;2.83;1.60;;;;;;;5.50;66.33;97967.72;1773576;80;20966;-64
2022/02/21 02:35:12;;;;;;;1.77;1.40;;;;;;;5.52;66.23;97966.55;1760944;80;20860;-64
2022/02/21 02:37:38;;;;;;;2.67;1.62;;;;;;;5.55;66.13;97952.19;1773342;80;21481;-64
2022/02/21 02:40:07;;;;;;;4.37;1.80;;;;;;;5.57;66.05;97960.25;1758119;80;20994;-64
2022/02/21 02:42:33;;;;;;;1.57;1.30;;;;;;;5.58;65.98;97949.17;1750281;80;21147;-64
2022/02/21 02:44:59;;;;;;;2.00;1.45;;;;;;;5.60;65.92;97953.80;1773306;80;20991;-64
2022/02/21 02:47:26;;;;;;;3.47;2.25;;;;;;;5.62;65.86;97954.44;1749334;80;21024;-64
2022/02/21 02:49:52;;;;;;;1.95;1.60;;;;;;;5.64;65.87;97944.52;1768730;80;20872;-64
2022/02/21 02:52:19;;;;;;;3.37;2.17;;;;;;;5.66;65.81;97939.88;1745664;80;21072;-65
2022/02/21 02:54:45;;;;;;;2.12;1.92;;;;;;;5.68;65.74;97939.73;1743970;82;21121;-64
2022/02/21 02:57:11;;;;;;;1.87;1.50;;;;;;;5.68;65.71;97943.19;1769472;80;21788;-65
2022/02/21 02:59:38;;;;;;;2.37;1.52;;;;;;;5.68;65.63;97932.64;1761574;80;21042;-65
2022/02/21 03:02:05;;;;;;;2.60;1.82;;;;;;;5.68;65.65;97928.68;1741381;80;20979;-64
2022/02/21 03:04:31;;;;;;;2.95;1.95;;;;;;;5.70;65.67;97928.48;1756652;80;21039;-64
2022/02/21 03:07:00;;;;;;;2.12;1.72;;;;;;;5.68;65.64;97922.08;1766719;80;22334;-65
2022/02/21 03:09:27;;;;;;;2.02;1.57;;;;;;;5.68;65.60;97916.80;1755831;80;21646;-65
2022/02/21 03:11:54;;;;;;;3.75;1.62;;;;;;;5.69;65.62;97924.20;1773431;80;21465;-64
2022/02/21 03:14:21;;;;;;;3.08;1.47;;;;;;;5.69;65.63;97917.60;1749230;80;20987;-65
2022/02/21 03:16:48;;;;;;;2.85;1.67;;;;;;;5.71;65.59;97915.63;1773335;80;20892;-64
2022/02/21 03:19:15;;;;;;;1.92;1.80;;;;;;;5.73;65.53;97910.98;1772155;80;21159;-64
2022/02/21 03:21:41;;;;;;;2.58;2.05;;;;;;;5.76;65.44;97906.69;1752270;80;21427;-64
2022/02/21 03:24:08;;;;;;;2.62;1.60;;;;;;;5.78;65.37;97909.47;1744794;80;20931;-64
2022/02/21 03:26:34;;;;;;;2.25;1.62;;;;;;;5.79;65.25;97895.25;1773277;80;21045;-65
2022/02/21 03:29:00;;;;;;;2.77;1.77;;;;;;;5.79;65.20;97895.25;1761315;80;20907;-64
2022/02/21 03:31:27;;;;;;;4.75;1.80;;;;;;;5.80;65.12;97887.67;1747685;80;21090;-63
2022/02/21 03:33:53;;;;;;;3.42;1.82;;;;;;;5.82;65.04;97883.52;1743926;82;21529;-64
2022/02/21 03:36:19;;;;;;;2.08;1.80;;;;;;;5.82;65.01;97876.92;1744063;82;21009;-65
2022/02/21 03:38:46;;;;;;;3.33;2.15;;;;;;;5.83;64.95;97874.13;1743932;82;20932;-65
2022/02/21 03:41:12;;;;;;;2.27;2.08;;;;;;;5.84;64.88;97863.07;1747561;80;20887;-65
2022/02/21 03:43:39;;;;;;;1.95;1.75;;;;;;;5.85;64.91;97858.95;1750341;80;21146;-64
2022/02/21 03:46:05;;;;;;;1.55;1.45;;;;;;;5.87;64.88;97861.40;1747010;80;20940;-64
2022/02/21 03:48:31;;;;;;;1.90;1.70;;;;;;;5.90;64.87;97854.45;1749002;80;20998;-65
2022/02/21 03:50:58;;;;;;;2.87;1.90;;;;;;;5.91;64.87;97847.69;1767697;80;21054;-65
2022/02/21 03:53:24;;;;;;;2.08;1.60;;;;;;;5.92;64.81;97842.70;1772631;80;21017;-65
2022/02/21 03:55:50;;;;;;;1.75;1.62;;;;;;;5.96;64.81;97843.17;1768204;80;21145;-65
2022/02/21 03:58:17;;;;;;;2.85;1.85;;;;;;;5.97;64.81;97829.78;1758977;80;20944;-65
2022/02/21 04:00:43;;;;;;;2.58;1.70;;;;;;;5.98;64.77;97822.69;1762879;80;21442;-66
2022/02/21 04:03:09;;;;;;;3.35;1.90;;;;;;;6.00;64.75;97816.23;1742527;82;21507;-65
2022/02/21 04:05:36;;;;;;;3.37;1.90;;;;;;;6.01;64.78;97817.88;1743646;82;20992;-66
2022/02/21 04:08:03;;;;;;;2.85;1.92;;;;;;;6.01;64.73;97815.24;1755041;80;21084;-66
2022/02/21 04:10:29;;;;;;;2.85;1.65;;;;;;;6.02;64.74;97806.83;1745863;80;20911;-65
2022/02/21 04:12:56;;;;;;;3.27;2.00;;;;;;;6.03;64.71;97806.63;1766673;80;20979;-64
2022/02/21 04:15:22;;;;;;;3.17;1.62;;;;;;;6.05;64.66;97802.48;1772757;80;20943;-64
2022/02/21 04:17:51;;;;;;;2.98;1.77;;;;;;;6.03;64.64;97798.71;1773264;80;20915;-65
2022/02/21 04:20:21;;;;;;;4.40;2.30;;;;;;;6.04;64.63;97795.08;1760008;80;21855;-64
2022/02/21 04:22:47;;;;;;;2.35;1.80;;;;;;;6.05;64.62;97791.42;1752557;80;20982;-64
2022/02/21 04:25:13;;;;;;;2.67;1.85;;;;;;;6.07;64.58;97783.34;1769221;80;20963;-64
2022/02/21 04:27:49;;;;;;;2.08;1.60;;;;;;;6.09;64.53;97786.11;1773368;80;20898;-63
2022/02/21 04:30:18;;;;;;;2.62;1.70;;;;;;;6.09;64.52;97778.69;1760211;80;21013;-64
2022/02/21 04:32:46;;;;;;;2.20;1.67;;;;;;;6.12;64.54;97774.37;1742514;82;21134;-66
2022/02/21 04:35:13;;;;;;;2.08;1.60;;;;;;;6.15;64.54;97776.13;1742516;82;20889;-64
2022/02/21 04:37:39;;;;;;;1.75;1.37;;;;;;;6.16;64.53;97775.13;1752719;80;21495;-65
2022/02/21 04:40:09;;;;;;;2.15;1.60;;;;;;;6.19;64.50;97773.95;1755608;80;20913;-65
2022/02/21 04:42:35;;;;;;;2.60;1.70;;;;;;;6.20;64.49;97764.50;1752379;80;21505;-64
2022/02/21 04:45:03;;;;;;;1.65;1.47;;;;;;;6.23;64.48;97761.20;1746008;80;21147;-65
2022/02/21 04:47:31;;;;;;;3.80;1.37;;;;;;;6.25;64.46;97757.88;1753504;80;20971;-65
2022/02/21 04:49:57;;;;;;;2.33;1.47;;;;;;;6.27;64.48;97751.89;1765971;80;20938;-65
2022/02/21 04:52:25;;;;;;;2.62;1.40;;;;;;;6.29;64.48;97751.20;1747492;80;21056;-65
2022/02/21 04:54:53;;;;;;;3.52;1.42;;;;;;;6.31;64.46;97750.02;1755356;80;21510;-67
2022/02/21 04:57:19;;;;;;;3.42;2.08;;;;;;;6.34;64.47;97748.33;1742283;80;21134;-65
2022/02/21 04:59:46;;;;;;;3.33;1.67;;;;;;;6.37;64.41;97745.81;1740797;81;20995;-67
2022/02/21 05:02:13;;;;;;;3.50;1.70;;;;;;;6.39;64.43;97736.70;1753877;81;20922;-67
2022/02/21 05:04:39;;;;;;;2.67;1.80;;;;;;;6.45;64.35;97739.11;1754093;80;20995;-65
2022/02/21 05:07:05;;;;;;;2.15;1.80;;;;;;;6.45;64.27;97741.25;1767032;80;20927;-64
2022/02/21 05:09:32;;;;;;;4.55;2.35;;;;;;;6.45;64.21;97730.69;1748539;80;21163;-64
2022/02/21 05:11:59;;;;;;;3.67;2.58;;;;;;;6.45;64.24;97729.86;1751838;80;20903;-65
2022/02/21 05:14:25;;;;;;;4.97;2.77;;;;;;;6.44;64.22;97727.72;1744542;80;21039;-64
2022/02/21 05:16:52;;;;;;;4.80;3.10;;;;;;;6.44;64.19;97719.80;1764507;80;21054;-65
2022/02/21 05:19:18;;;;;;;3.95;2.67;;;;;;;6.44;64.15;97717.67;1769333;80;21065;-65
2022/02/21 05:21:45;;;;;;;2.85;1.90;;;;;;;6.44;64.16;97716.36;1762539;80;21151;-65
2022/02/21 05:24:11;;;;;;;3.60;1.85;;;;;;;6.41;64.15;97718.05;1762310;80;20986;-66
2022/02/21 05:26:38;;;;;;;4.10;2.37;;;;;;;6.39;64.22;97718.74;1773439;80;20935;-64
2022/02/21 05:29:04;;;;;;;3.25;1.95;;;;;;;6.38;64.29;97710.48;1748369;80;21639;-65
2022/02/21 05:31:31;;;;;;;2.20;1.70;;;;;;;6.35;64.34;97710.36;1754601;80;21565;-64
2022/02/21 05:33:57;;;;;;;3.20;2.02;;;;;;;6.37;64.41;97707.52;1751454;80;21153;-64
2022/02/21 05:36:23;;;;;;;4.83;2.12;;;;;;;6.38;64.45;97707.84;1743271;80;20979;-65
2022/02/21 05:38:50;;;;;;;2.92;2.02;;;;;;;6.38;64.48;97700.75;1773359;80;21106;-63
2022/02/21 05:41:16;;;;;;;3.35;2.60;;;;;;;6.38;64.53;97695.47;1737233;80;20931;-65
2022/02/21 05:43:43;;;;;;;4.37;3.00;;;;;;;6.38;64.57;97698.11;1768506;80;21457;-64
2022/02/21 05:46:10;;;;;;;4.90;3.55;;;;;;;6.39;64.65;97694.97;1761318;80;21817;-64
2022/02/21 05:48:36;;;;;;;5.58;3.70;;;;;;;6.39;64.71;97691.01;1773385;80;20962;-66
2022/02/21 05:51:03;;;;;;;6.97;3.20;;;;;;;6.39;64.83;97681.77;1772943;80;20896;-64
2022/02/21 05:53:29;;;;;;;9.18;3.77;;;;;;;6.39;64.93;97679.13;1765170;80;21035;-62
2022/02/21 05:55:55;;;;;;;4.85;3.47;;;;;;;6.41;64.98;97682.39;1742255;82;21491;-64
2022/02/21 05:58:22;;;;;;;3.70;2.98;;;;;;;6.43;65.00;97671.95;1746047;80;21035;-61
2022/02/21 06:00:49;;;;;;;4.35;2.98;;;;;;;6.46;64.98;97662.83;1752231;80;20932;-66
2022/02/21 06:03:17;;;;;;;4.25;3.10;;;;;;;6.47;65.00;97663.95;1744490;80;21573;-66
2022/02/21 06:05:46;;;;;;;4.87;3.08;;;;;;;6.50;64.96;97666.22;1756276;80;20961;-65
2022/02/21 06:08:13;;;;;;;8.03;3.52;;;;;;;6.53;64.97;97661.06;1744644;80;20956;-65
2022/02/21 06:10:39;;;;;;;6.25;3.70;;;;;;;6.56;64.96;97664.66;1747529;80;21155;-65
2022/02/21 06:13:06;;;;;;;3.27;2.70;;;;;;;6.60;64.94;97661.94;1744182;80;20915;-65
2022/02/21 06:15:32;;;;;;;4.30;3.30;;;;;;;6.63;64.90;97668.98;1743030;81;20861;-63
2022/02/21 06:17:59;;;;;;;3.55;2.90;;;;;;;6.64;64.88;97659.25;1740039;80;20996;-67
2022/02/21 06:20:27;;;;;;;6.12;3.35;;;;;;;6.66;64.87;97662.02;1768440;80;21058;-65
2022/02/21 06:22:54;;;;;;;5.53;4.30;;;;;;;6.70;64.87;97654.53;1760869;80;21134;-66
2022/02/21 06:25:21;;;;;;;7.67;4.45;;;;;;;6.73;64.82;97652.81;1760608;80;20939;-66
2022/02/21 06:27:47;;;;;;;5.58;4.30;;;;;;;6.73;64.81;97647.03;1772563;80;20990;-67
2022/02/21 06:30:15;;;;;;;4.35;3.55;;;;;;;6.78;64.76;97647.77;1742964;80;20951;-64
2022/02/21 06:32:41;;;;;;;5.37;4.20;;;;;;;6.83;64.74;97651.98;1760847;80;20915;-64
2022/02/21 06:35:10;;;;;;;6.28;4.90;;;;;;;6.85;64.71;97648.66;1766272;80;21124;-64
2022/02/21 06:37:49;;;;;;;6.22;4.78;;;;;;;6.86;64.70;97651.60;1772975;80;21062;-67
2022/02/21 06:40:13;;;;;;;6.90;5.75;;;;;;;6.87;64.69;97642.67;1759852;80;20923;-67
2022/02/21 06:42:40;;;;;;;8.70;6.70;;;;;;;6.88;64.61;97636.39;1741034;81;20968;-66
2022/02/21 06:45:07;;;;;;;5.75;4.75;;;;;;;6.89;64.61;97629.25;1743790;82;21513;-64
2022/02/21 06:47:34;;;;;;;5.53;4.75;;;;;;;6.89;64.56;97624.80;1752362;80;21166;-67
2022/02/21 06:50:01;;;;;;;6.03;4.30;;;;;;;6.89;64.50;97623.47;1762446;80;20889;-65
2022/02/21 06:52:28;;;;;;;5.15;3.35;;;;;;;6.89;64.48;97622.65;1743960;82;21008;-62
2022/02/21 06:54:54;;;;;;;4.28;3.47;;;;;;;6.90;64.48;97625.12;1751190;80;20944;-63
2022/02/21 06:57:22;;;;;;;3.67;3.33;;;;;;;6.90;64.48;97621.16;1759591;81;21007;-62
2022/02/21 06:59:49;;;;;;;4.58;3.30;;;;;;;6.93;64.38;97618.13;1760747;81;21618;-62
2022/02/21 07:02:16;;;;;;;3.95;2.83;;;;;;;6.99;64.30;97613.91;1759947;81;20969;-62
2022/02/21 07:04:42;;;;;;;4.10;3.20;;;;;;;7.01;64.11;97623.28;1739816;81;20963;-61
2022/02/21 07:07:09;;;;;;;3.75;3.35;;;;;;;7.03;63.98;97619.11;1751980;81;20944;-60
2022/02/21 07:09:37;;;;;;;5.47;3.42;;;;;;;7.07;63.80;97631.73;1748391;81;21437;-62
2022/02/21 07:12:05;;;;;;;3.90;3.50;;;;;;;7.10;63.63;97626.07;1749273;81;21140;-62
2022/02/21 07:14:31;;;;;;;5.92;4.35;;;;;;;7.11;63.53;97617.14;1746582;81;20995;-62
2022/02/21 07:16:57;;;;;;;7.30;3.95;;;;;;;7.14;63.46;97618.08;1748463;81;20947;-66
2022/02/21 07:19:24;;;;;;;5.90;4.03;;;;;;;7.17;63.41;97615.02;1753179;81;20943;-62
2022/02/21 07:21:50;;;;;;;4.40;3.62;;;;;;;7.19;63.35;97609.06;1681207;85;21074;-60
2022/02/21 07:24:16;;;;;;;5.35;3.87;;;;;;;7.21;63.45;97612.82;1744870;81;21772;-66
2022/02/21 07:26:43;;;;;;;5.28;3.92;;;;;;;7.21;63.47;97612.82;1741613;81;20907;-62
2022/02/21 07:29:10;;;;;;;5.28;3.85;;;;;;;7.23;63.52;97606.83;1741322;82;21070;-63
2022/02/21 07:31:36;;;;;;;6.85;4.62;;;;;;;7.26;63.52;97603.30;1742098;81;21501;-65
2022/02/21 07:34:03;;;;;;;4.62;3.55;;;;;;;7.29;63.61;97604.23;1741784;81;20907;-63
2022/02/21 07:36:30;;;;;;;5.28;4.25;;;;;;;7.34;63.61;97594.39;1741647;81;21160;-64
2022/02/21 07:38:57;;;;;;;6.45;4.12;;;;;;;7.39;63.50;97594.11;1741618;82;20987;-64
2022/02/21 07:41:23;;;;;;;6.95;4.72;;;;;;;7.43;63.39;97596.67;1741574;82;21051;-68
2022/02/21 07:43:50;;;;;;;6.30;4.80;;;;;;;7.46;63.23;97596.28;1741371;82;21121;-65
2022/02/21 07:46:16;;;;;;;5.97;4.80;;;;;;;7.51;63.11;97586.95;1741311;81;21075;-64
2022/02/21 07:48:43;;;;;;;5.80;5.20;;;;;;;7.57;62.90;97580.36;1741804;82;21133;-67
2022/02/21 07:51:09;;;;;;;6.17;5.08;;;;;;;7.64;62.77;97583.84;1741090;82;21122;-63
2022/02/21 07:53:36;;;;;;;5.97;4.70;;;;;;;7.73;62.58;97584.49;1742093;81;21035;-62
2022/02/21 07:56:04;;;;;;;6.28;4.58;;;;;;;7.80;62.17;97574.23;1759499;80;20923;-65
2022/02/21 07:58:30;;;;;;;5.62;4.22;;;;;;;7.86;61.91;97567.33;1773016;80;20980;-66
2022/02/21 08:00:56;;;;;;;5.20;4.33;;;;;;;7.90;61.59;97573.88;1773421;80;21228;-62
2022/02/21 08:03:23;;;;;;;7.85;4.25;;;;;;;7.94;61.44;97562.69;1755769;80;21498;-67
2022/02/21 08:05:52;;;;;;;4.87;4.42;;;;;;;8.00;61.24;97561.07;1764360;80;21007;-65
2022/02/21 08:08:18;;;;;;;5.05;4.42;;;;;;;8.04;60.94;97557.00;1770467;80;21047;-61
2022/02/21 08:10:44;;;;;;;5.22;4.28;;;;;;;8.09;60.82;97557.20;1752895;80;21014;-62
2022/02/21 08:13:11;;;;;;;4.50;4.10;;;;;;;8.14;60.57;97552.63;1772116;80;21780;-62
2022/02/21 08:15:37;;;;;;;8.83;7.00;;;;;;;8.15;60.38;97556.41;1765366;80;21551;-63
2022/02/21 08:18:04;;;;;;;6.20;4.12;;;;;;;8.18;60.20;97560.49;1764684;80;21013;-62
2022/02/21 08:20:31;;;;;;;5.83;3.55;;;;;;;8.19;60.08;97547.54;1760777;80;20947;-66
2022/02/21 08:22:57;;;;;;;3.92;3.52;;;;;;;8.22;59.91;97555.09;1751380;80;21496;-63
2022/02/21 08:25:24;;;;;;;3.83;3.45;;;;;;;8.23;59.81;97550.11;1759896;80;21837;-63
2022/02/21 08:27:51;;;;;;;3.72;3.37;;;;;;;8.26;59.68;97539.11;1773194;80;21021;-65
2022/02/21 08:30:20;;;;;;;3.72;3.22;;;;;;;8.29;59.43;97536.89;1772395;80;20951;-63
2022/02/21 08:32:47;;;;;;;5.53;3.95;;;;;;;8.33;59.25;97531.50;1763378;80;21000;-64
2022/02/21 08:35:13;;;;;;;5.55;4.08;;;;;;;8.48;60.31;97537.92;1757180;80;20923;-66
2022/02/21 08:37:39;;;;;;;5.15;4.60;;;;;;;8.61;59.23;97531.30;1762418;80;21072;-61
2022/02/21 08:40:09;;;;;;;5.60;4.05;;;;;;;8.65;58.97;97541.31;1773250;80;21037;-65
2022/02/21 08:42:36;;;;;;;4.72;4.10;;;;;;;8.68;58.83;97536.11;1761761;80;20943;-62
2022/02/21 08:45:05;;;;;;;4.95;4.20;;;;;;;8.72;58.92;97517.43;1773197;80;20978;-64
2022/02/21 08:47:32;;;;;;;4.95;4.08;;;;;;;8.78;58.83;97515.80;1760819;80;20983;-65
2022/02/21 08:49:58;;;;;;;4.87;4.37;;;;;;;8.80;58.70;97520.38;1773311;80;21713;-61
2022/02/21 08:52:24;;;;;;;4.20;3.90;;;;;;;8.84;58.52;97514.98;1771846;80;21036;-63
2022/02/21 08:54:51;;;;;;;4.70;3.58;;;;;;;8.87;57.94;97521.99;1773035;80;20951;-62
2022/02/21 08:57:17;;;;;;;6.37;4.62;;;;;;;8.90;57.73;97518.11;1771730;80;21026;-64
2022/02/21 08:59:44;;;;;;;5.00;4.47;;;;;;;8.92;57.31;97510.25;1750705;80;20904;-61
2022/02/21 09:02:10;;;;;;;5.22;4.33;;;;;;;8.94;57.15;97496.80;1751875;80;23349;-63
2022/02/21 09:04:37;;;;;;;4.90;4.47;;;;;;;8.94;56.67;97498.92;1773174;80;21536;-63
2022/02/21 09:07:04;;;;;;;4.37;3.98;;;;;;;8.92;56.66;97510.25;1773179;80;21037;-63
2022/02/21 09:09:30;;;;;;;5.60;4.25;;;;;;;8.91;56.57;97490.59;1756329;80;20907;-63
2022/02/21 09:11:57;;;;;;;4.80;4.25;;;;;;;8.90;56.54;97500.87;1743935;82;21001;-63
2022/02/21 09:14:23;;;;;;;4.20;3.77;;;;;;;8.91;56.49;97505.17;1740067;80;21165;-64
2022/02/21 09:16:50;;;;;;;4.53;3.45;;;;;;;8.90;56.46;97499.55;1760556;80;21595;-67
2022/02/21 09:19:16;;;;;;;4.83;4.33;;;;;;;8.89;56.53;97504.03;1771858;80;20940;-65
2022/02/21 09:21:43;;;;;;;5.22;4.15;;;;;;;8.86;56.73;97511.10;1773022;80;21006;-63
2022/02/21 09:24:09;;;;;;;5.20;4.70;;;;;;;8.84;56.96;97515.77;1772135;80;21058;-65
2022/02/21 09:26:36;;;;;;;5.40;4.53;;;;;;;8.84;57.22;97522.94;1757263;80;21095;-64
2022/02/21 09:29:03;;;;;;;5.28;4.75;;;;;;;8.81;57.53;97518.05;1771953;80;21166;-65
2022/02/21 09:31:29;;;;;;;6.25;4.80;;;;;;;8.77;57.98;97512.83;1771597;80;21044;-62
2022/02/21 09:33:55;;;;;;;4.72;4.25;;;;;;;8.74;58.50;97523.84;1768173;80;21061;-63
2022/02/21 09:36:22;;;;;;;4.55;4.15;;;;;;;8.68;59.19;97518.34;1754692;80;21581;-64
2022/02/21 09:38:49;;;;;;;5.30;4.80;;;;;;;8.63;60.04;97519.97;1765921;80;21196;-65
2022/02/21 09:41:15;;;;;;;4.53;4.12;;;;;;;8.55;60.99;97513.58;1770891;80;20971;-62
2022/02/21 09:43:42;;;;;;;9.48;5.28;;;;;;;8.46;61.59;97516.11;1760680;80;21457;-64
2022/02/21 09:46:12;;;;;;;5.53;4.70;;;;;;;8.39;62.34;97510.83;1772375;80;20999;-65
2022/02/21 09:48:39;;;;;;;6.37;5.05;;;;;;;8.32;62.92;97515.30;1751703;80;21517;-63
2022/02/21 09:51:07;;;;;;;5.30;4.80;;;;;;;8.26;63.63;97508.14;1751426;80;21087;-64
2022/02/21 09:53:36;;;;;;;4.78;4.37;;;;;;;8.20;64.08;97492.23;1758948;80;20896;-64
2022/02/21 09:56:05;;;;;;;5.75;4.37;;;;;;;8.16;64.59;97499.75;1740573;80;21591;-62
2022/02/21 09:58:33;;;;;;;5.05;4.62;;;;;;;8.15;64.95;97496.00;1737293;82;21440;-64
2022/02/21 10:01:00;;;;;;;7.40;4.22;;;;;;;8.12;65.15;97505.16;1736497;82;20943;-65
2022/02/21 10:03:45;;;;;;;5.97;5.10;;;;;;;8.11;65.37;97492.93;1736830;81;21065;-62
2022/02/21 10:06:29;;;;;;;5.70;4.78;;;;;;;8.11;65.59;97497.44;1736788;82;20946;-62
2022/02/21 10:09:08;;;;;;;5.05;4.60;;;;;;;8.08;65.86;97503.95;1736866;82;21571;-63
2022/02/21 10:11:44;;;;;;;5.12;4.05;;;;;;;8.05;65.85;97497.73;1725912;82;20883;-62
2022/02/21 10:14:15;;;;;;;5.40;4.90;;;;;;;8.01;65.82;97483.25;1736978;82;21005;-62
2022/02/21 10:16:45;;;;;;;5.95;5.35;;;;;;;8.01;65.98;97481.92;1734632;82;21156;-63
2022/02/21 10:19:21;;;;;;;4.85;4.40;;;;;;;8.02;66.03;97484.39;1734147;82;21418;-60
2022/02/21 10:22:01;;;;;;;5.75;4.78;;;;;;;8.06;66.05;97478.16;1729415;82;21029;-61
2022/02/21 10:24:47;;;;;;;5.10;4.55;;;;;;;8.12;65.92;97469.91;1724684;82;21045;-61
2022/02/21 10:27:26;;;;;;;5.67;5.08;;;;;;;8.18;66.01;97461.16;1734832;82;20979;-63
2022/02/21 10:29:59;;;;;;;5.60;4.37;;;;;;;8.26;65.99;97463.61;1730845;82;21836;-64
2022/02/21 10:32:28;;;;;;;5.30;4.80;;;;;;;8.38;66.07;97469.45;1736731;82;20974;-64
2022/02/21 10:34:56;;;;;;;4.92;4.42;;;;;;;8.49;65.96;97454.77;1735077;82;20979;-62
2022/02/21 10:37:26;;;;;;;5.17;4.72;;;;;;;8.59;66.12;97440.07;1729281;82;20985;-63
2022/02/21 10:40:08;;;;;;;4.97;4.58;;;;;;;8.72;66.30;97452.98;1726305;82;21536;-61
2022/02/21 10:42:36;;;;;;;4.53;4.12;;;;;;;8.77;66.10;97442.06;1720256;82;21531;-63
2022/02/21 10:45:16;;;;;;;5.15;4.65;;;;;;;8.82;66.04;97438.78;1738247;82;21492;-62
2022/02/21 10:48:05;;;;;;;11.38;4.67;;;;;;;8.89;66.04;97442.25;1737522;82;21540;-62
2022/02/21 10:50:34;;;;;;;4.92;4.40;;;;;;;8.90;66.02;97441.21;1736175;82;20966;-65
2022/02/21 10:53:11;;;;;;;5.28;4.78;;;;;;;8.91;66.02;97437.55;1706399;83;21013;-62
2022/02/21 10:55:37;;;;;;;5.40;4.92;;;;;;;8.90;66.00;97434.58;1724691;82;21962;-62
2022/02/21 10:58:23;;;;;;;4.83;4.33;;;;;;;8.91;66.11;97429.09;1727540;82;20885;-64
2022/02/21 11:00:50;;;;;;;4.87;4.47;;;;;;;8.94;66.07;97427.86;1718491;82;21049;-61
2022/02/21 11:03:22;;;;;;;5.00;4.50;;;;;;;8.97;65.84;97426.91;1717668;82;21944;-63
2022/02/21 11:05:49;;;;;;;4.28;3.92;;;;;;;9.01;65.67;97428.64;1714512;82;21125;-62
2022/02/21 11:08:17;;;;;;;5.90;5.03;;;;;;;9.02;65.31;97420.46;1727112;82;21138;-64
2022/02/21 11:10:44;;;;;;;7.25;6.15;;;;;;;9.05;65.02;97421.88;1730688;82;20935;-63
2022/02/21 11:13:14;;;;;;;5.87;5.00;;;;;;;9.10;65.03;97419.41;1729936;82;20960;-63
2022/02/21 11:15:40;;;;;;;5.53;5.03;;;;;;;9.12;64.77;97414.73;1692286;84;21421;-64
2022/02/21 11:18:12;;;;;;;4.45;4.05;;;;;;;9.13;64.57;97412.36;1726764;82;20959;-64
2022/02/21 11:20:39;;;;;;;4.95;4.45;;;;;;;9.15;64.18;97413.78;1720713;82;21162;-64
2022/02/21 11:23:06;;;;;;;4.47;4.00;;;;;;;9.15;63.93;97410.33;1719763;82;21007;-63
2022/02/21 11:25:40;;;;;;;5.00;4.50;;;;;;;9.17;63.83;97406.95;1706995;82;21004;-63
2022/02/21 11:28:28;;;;;;;5.72;5.17;;;;;;;9.19;63.68;97399.59;1730666;82;20979;-65
2022/02/21 11:31:01;;;;;;;4.45;4.05;;;;;;;9.22;63.57;97404.48;1724205;82;20980;-63
2022/02/21 11:33:28;;;;;;;3.70;3.40;;;;;;;9.26;63.37;97395.88;1730335;82;21198;-64
2022/02/21 11:36:13;;;;;;;4.22;3.83;;;;;;;9.30;62.84;97396.27;1724662;82;21483;-63
2022/02/21 11:38:41;;;;;;;3.85;3.55;;;;;;;9.33;62.61;97397.69;1706674;82;21084;-64
2022/02/21 11:41:10;;;;;;;3.75;3.45;;;;;;;9.35;62.01;97396.95;1723764;82;20996;-63
2022/02/21 11:43:46;;;;;;;3.45;3.15;;;;;;;9.38;61.61;97400.52;1726675;82;20948;-63